Time;durP1;ratioP1;P1;durP2;ratioP2;P2;SDS_P1;SDS_P2;PMS_P1;PMS_P2;Temp;Humidity;BMP_temperature;BMP_pressure;BME280_temperature;BME280_humidity;BME280_pressure;Samples;Min_cycle;Max_cycle;Signal;HPM_P1;HPM_P2
2023/07/28 00:02:14;;;;;;;1.65;1.55;;;;;;;;;;5029037;28;20061;-74
2023/07/28 00:04:41;;;;;;;1.58;1.40;;;;;;;;;;5028463;28;20053;-75
2023/07/28 00:07:09;;;;;;;1.65;1.55;;;;;;;;;;5028100;28;20052;-74
2023/07/28 00:09:36;;;;;;;1.80;1.70;;;;;;;;;;5028033;28;20416;-73
2023/07/28 00:12:04;;;;;;;4.03;1.80;;;;;;;;;;5028205;28;20061;-74
2023/07/28 00:14:32;;;;;;;1.70;1.60;;;;;;;;;;5028993;28;20061;-75
2023/07/28 00:16:59;;;;;;;1.85;1.48;;;;;;;;;;5028794;28;20424;-73
2023/07/28 00:19:27;;;;;;;3.80;1.50;;;;;;;;;;5021787;28;20416;-74
2023/07/28 00:21:56;;;;;;;1.92;1.83;;;;;;;;;;5028791;28;20064;-75
2023/07/28 00:24:23;;;;;;;1.73;1.63;;;;;;;;;;5038230;28;20041;-76
2023/07/28 00:26:51;;;;;;;1.70;1.60;;;;;;;;;;5038721;28;20140;-74
2023/07/28 00:29:18;;;;;;;1.88;1.77;;;;;;;;;;5022118;28;20049;-74
2023/07/28 00:31:46;;;;;;;1.60;1.50;;;;;;;;;;5028049;28;20057;-76
2023/07/28 00:34:15;;;;;;;1.40;1.40;;;;;;;;;;5010344;28;20526;-74
2023/07/28 00:36:42;;;;;;;1.80;1.70;;;;;;;;;;5027449;28;20053;-77
2023/07/28 00:39:10;;;;;;;1.73;1.63;;;;;;;;;;5009533;28;20045;-73
2023/07/28 00:41:38;;;;;;;4.10;1.80;;;;;;;;;;5028876;28;20045;-73
2023/07/28 00:44:06;;;;;;;1.92;1.63;;;;;;;;;;5028698;28;20049;-73
2023/07/28 00:46:34;;;;;;;1.60;1.30;;;;;;;;;;5028219;28;20045;-74
2023/07/28 00:49:03;;;;;;;1.50;1.40;;;;;;;;;;5019511;28;20111;-73
2023/07/28 00:51:31;;;;;;;1.65;1.60;;;;;;;;;;5010989;28;20096;-74
2023/07/28 00:54:01;;;;;;;1.50;1.50;;;;;;;;;;5028131;28;20053;-74
2023/07/28 00:56:29;;;;;;;1.83;1.73;;;;;;;;;;5009693;28;20064;-74
2023/07/28 00:58:57;;;;;;;1.52;1.42;;;;;;;;;;5028093;28;20057;-73
2023/07/28 01:01:25;;;;;;;1.50;1.40;;;;;;;;;;5022241;28;20483;-73
2023/07/28 01:03:53;;;;;;;1.50;1.40;;;;;;;;;;5026793;28;20060;-73
2023/07/28 01:06:23;;;;;;;1.55;1.45;;;;;;;;;;5027142;28;20041;-74
2023/07/28 01:09:05;;;;;;;1.77;1.50;;;;;;;;;;5027148;28;20388;-73
2023/07/28 01:11:33;;;;;;;1.75;1.65;;;;;;;;;;5027196;28;20056;-75
2023/07/28 01:14:02;;;;;;;1.52;1.52;;;;;;;;;;5025062;28;20557;-73
2023/07/28 01:16:30;;;;;;;1.60;1.50;;;;;;;;;;5024205;28;20064;-75
2023/07/28 01:18:58;;;;;;;2.55;1.70;;;;;;;;;;5024088;28;20041;-74
2023/07/28 01:21:30;;;;;;;1.38;1.30;;;;;;;;;;5023043;28;20221;-73
2023/07/28 01:24:02;;;;;;;1.63;1.60;;;;;;;;;;5023253;28;20052;-74
2023/07/28 01:26:39;;;;;;;1.52;1.42;;;;;;;;;;5014253;28;20053;-75
2023/07/28 01:29:08;;;;;;;1.73;1.60;;;;;;;;;;5022315;28;20033;-74
2023/07/28 01:31:36;;;;;;;1.55;1.50;;;;;;;;;;5023935;28;20055;-76
2023/07/28 01:34:03;;;;;;;1.50;1.40;;;;;;;;;;5025482;28;20132;-74
2023/07/28 01:36:31;;;;;;;1.70;1.60;;;;;;;;;;5023782;28;20045;-73
2023/07/28 01:38:59;;;;;;;1.90;1.80;;;;;;;;;;5024497;28;20057;-74
2023/07/28 01:41:27;;;;;;;1.42;1.42;;;;;;;;;;5026066;28;20045;-74
2023/07/28 01:43:55;;;;;;;1.60;1.50;;;;;;;;;;5025764;28;20475;-75
2023/07/28 01:46:23;;;;;;;4.85;2.13;;;;;;;;;;5023397;28;20500;-73
2023/07/28 01:48:51;;;;;;;1.80;1.70;;;;;;;;;;5018453;28;20060;-76
2023/07/28 01:51:19;;;;;;;1.77;1.67;;;;;;;;;;5024612;28;20050;-74
2023/07/28 01:53:46;;;;;;;1.73;1.67;;;;;;;;;;5024239;28;20053;-74
2023/07/28 01:56:14;;;;;;;1.80;1.70;;;;;;;;;;5020526;28;20049;-73
2023/07/28 01:58:42;;;;;;;1.80;1.70;;;;;;;;;;5010347;28;20087;-77
2023/07/28 02:01:13;;;;;;;4.30;1.88;;;;;;;;;;5022262;28;20214;-73
2023/07/28 02:03:40;;;;;;;1.70;1.60;;;;;;;;;;5018990;28;20061;-75
2023/07/28 02:06:08;;;;;;;1.90;1.80;;;;;;;;;;5025243;28;20194;-73
2023/07/28 02:08:36;;;;;;;2.50;1.60;;;;;;;;;;5037373;28;20046;-76
2023/07/28 02:11:05;;;;;;;1.83;1.73;;;;;;;;;;5029032;28;20045;-73
2023/07/28 02:13:33;;;;;;;1.88;1.77;;;;;;;;;;5020946;28;20136;-74
2023/07/28 02:16:03;;;;;;;1.90;1.80;;;;;;;;;;5014283;28;21613;-75
2023/07/28 02:18:31;;;;;;;1.83;1.70;;;;;;;;;;5015252;28;20052;-77
2023/07/28 02:20:58;;;;;;;1.77;1.67;;;;;;;;;;5025703;28;20518;-73
2023/07/28 02:23:26;;;;;;;2.20;2.00;;;;;;;;;;5025987;28;20515;-74
2023/07/28 02:25:54;;;;;;;1.83;1.73;;;;;;;;;;5007830;28;20045;-76
2023/07/28 02:28:23;;;;;;;1.88;1.77;;;;;;;;;;5007523;28;20073;-74
2023/07/28 02:30:50;;;;;;;2.30;2.20;;;;;;;;;;5026586;28;20057;-73
2023/07/28 02:33:18;;;;;;;2.30;2.10;;;;;;;;;;5027273;28;20104;-73
2023/07/28 02:35:46;;;;;;;2.00;1.90;;;;;;;;;;5008700;28;20061;-73
2023/07/28 02:38:14;;;;;;;2.08;1.98;;;;;;;;;;5008180;28;20119;-76
2023/07/28 02:40:41;;;;;;;2.05;1.95;;;;;;;;;;5025311;28;20049;-74
2023/07/28 02:43:09;;;;;;;2.50;1.80;;;;;;;;;;5008131;28;20056;-74
2023/07/28 02:45:37;;;;;;;2.35;1.80;;;;;;;;;;5018763;28;20053;-74
2023/07/28 02:48:05;;;;;;;2.20;2.00;;;;;;;;;;5000520;28;20046;-74
2023/07/28 02:50:35;;;;;;;2.10;1.90;;;;;;;;;;5019280;28;20049;-76
2023/07/28 02:53:03;;;;;;;1.95;1.85;;;;;;;;;;5009328;28;20053;-73
2023/07/28 02:55:31;;;;;;;1.85;1.75;;;;;;;;;;5008519;28;20060;-74
2023/07/28 02:58:00;;;;;;;1.95;1.73;;;;;;;;;;5007586;28;20041;-73
2023/07/28 03:00:27;;;;;;;2.03;1.92;;;;;;;;;;4991583;28;20053;-74
2023/07/28 03:02:55;;;;;;;2.45;2.20;;;;;;;;;;5009313;28;20046;-74
2023/07/28 03:05:23;;;;;;;2.25;1.98;;;;;;;;;;5025738;28;20053;-72
2023/07/28 03:08:13;;;;;;;2.30;2.20;;;;;;;;;;5008962;28;20554;-72
2023/07/28 03:10:41;;;;;;;2.08;1.98;;;;;;;;;;5025770;28;20054;-73
2023/07/28 03:13:09;;;;;;;2.20;2.10;;;;;;;;;;5008224;28;20526;-73
2023/07/28 03:15:37;;;;;;;6.97;2.30;;;;;;;;;;5025629;28;20414;-73
2023/07/28 03:18:06;;;;;;;1.95;1.85;;;;;;;;;;5025376;28;20567;-74
2023/07/28 03:20:33;;;;;;;2.13;2.03;;;;;;;;;;5025268;28;20081;-74
2023/07/28 03:23:01;;;;;;;4.45;2.20;;;;;;;;;;5025468;28;20057;-73
2023/07/28 03:25:29;;;;;;;3.55;1.92;;;;;;;;;;5007292;28;20129;-75
2023/07/28 03:27:57;;;;;;;2.92;1.80;;;;;;;;;;5006980;28;20073;-77
2023/07/28 03:30:24;;;;;;;2.47;2.28;;;;;;;;;;5007597;28;20050;-73
2023/07/28 03:32:52;;;;;;;2.60;2.40;;;;;;;;;;5025446;28;20481;-74
2023/07/28 03:35:19;;;;;;;2.00;1.90;;;;;;;;;;5017740;28;20132;-74
2023/07/28 03:37:55;;;;;;;2.58;2.10;;;;;;;;;;5007009;28;20049;-75
2023/07/28 03:40:23;;;;;;;2.00;1.90;;;;;;;;;;5023658;28;20041;-75
2023/07/28 03:42:53;;;;;;;2.03;1.92;;;;;;;;;;5098874;23;20025;-80
2023/07/28 03:45:21;;;;;;;1.95;1.85;;;;;;;;;;5071837;28;20041;-77
2023/07/28 03:47:49;;;;;;;2.33;2.13;;;;;;;;;;5064427;28;20425;-76
2023/07/28 03:50:17;;;;;;;3.13;2.00;;;;;;;;;;5065100;28;20048;-76
2023/07/28 03:52:45;;;;;;;1.90;1.80;;;;;;;;;;5065038;28;20115;-77
2023/07/28 03:55:13;;;;;;;3.80;1.88;;;;;;;;;;5047145;28;20517;-76
2023/07/28 03:57:41;;;;;;;1.95;1.83;;;;;;;;;;5064186;28;20123;-77
2023/07/28 04:00:09;;;;;;;2.30;2.15;;;;;;;;;;5065213;28;20517;-80
2023/07/28 04:02:40;;;;;;;2.05;1.95;;;;;;;;;;5068282;28;20048;-76
2023/07/28 04:05:08;;;;;;;2.33;2.15;;;;;;;;;;5068313;28;20044;-76
2023/07/28 04:07:35;;;;;;;2.20;1.90;;;;;;;;;;5068115;28;20135;-77
2023/07/28 04:10:03;;;;;;;2.35;2.15;;;;;;;;;;5067078;28;20402;-77
2023/07/28 04:12:31;;;;;;;2.28;2.08;;;;;;;;;;5068337;28;20067;-78
2023/07/28 04:14:58;;;;;;;1.83;1.70;;;;;;;;;;5067832;28;20502;-76
2023/07/28 04:17:26;;;;;;;3.03;1.90;;;;;;;;;;5049795;28;20109;-81
2023/07/28 04:19:54;;;;;;;2.08;1.98;;;;;;;;;;5049941;28;20102;-77
2023/07/28 04:22:22;;;;;;;2.00;1.90;;;;;;;;;;5050440;28;20304;-76
2023/07/28 04:24:53;;;;;;;2.60;2.33;;;;;;;;;;5068250;28;20045;-80
2023/07/28 04:27:21;;;;;;;4.63;2.30;;;;;;;;;;5043301;28;20052;-76
2023/07/28 04:29:51;;;;;;;2.30;2.20;;;;;;;;;;5050836;28;20524;-79
2023/07/28 04:32:21;;;;;;;2.03;1.92;;;;;;;;;;5050347;28;20131;-80
2023/07/28 04:34:51;;;;;;;2.17;2.00;;;;;;;;;;5049760;28;20446;-79
2023/07/28 04:37:38;;;;;;;3.67;1.88;;;;;;;;;;5041441;28;20040;-79
2023/07/28 04:40:08;;;;;;;2.63;2.20;;;;;;;;;;5066557;28;20052;-76
2023/07/28 04:42:38;;;;;;;3.13;1.83;;;;;;;;;;5049991;28;20055;-79
2023/07/28 04:45:06;;;;;;;2.65;2.45;;;;;;;;;;5067121;28;20473;-79
2023/07/28 04:47:34;;;;;;;2.60;2.13;;;;;;;;;;5067789;28;20072;-79
2023/07/28 04:50:02;;;;;;;2.97;2.78;;;;;;;;;;5049151;28;20075;-80
2023/07/28 04:53:05;;;;;;;2.58;2.38;;;;;;;;;;5044367;28;20105;-76
2023/07/28 04:55:38;;;;;;;2.75;2.55;;;;;;;;;;5067701;28;20106;-81
2023/07/28 04:58:06;;;;;;;3.10;2.90;;;;;;;;;;5067650;28;20084;-76
2023/07/28 05:00:45;;;;;;;3.30;2.90;;;;;;;;;;5048933;28;20040;-80
2023/07/28 05:03:12;;;;;;;4.30;3.10;;;;;;;;;;5043771;28;20053;-78
2023/07/28 05:05:47;;;;;;;3.13;2.92;;;;;;;;;;5047787;28;20055;-82
2023/07/28 05:08:15;;;;;;;3.60;3.28;;;;;;;;;;5046319;28;20619;-76
2023/07/28 05:10:43;;;;;;;3.38;2.78;;;;;;;;;;5045884;28;20050;-76
2023/07/28 05:13:11;;;;;;;2.92;2.72;;;;;;;;;;5046102;28;20059;-78
2023/07/28 05:15:42;;;;;;;2.85;2.70;;;;;;;;;;5048720;28;20516;-76
2023/07/28 05:18:17;;;;;;;3.00;2.80;;;;;;;;;;5048066;28;20360;-76
2023/07/28 05:21:03;;;;;;;2.63;2.42;;;;;;;;;;5046195;28;20127;-77
2023/07/28 05:23:30;;;;;;;3.00;2.80;;;;;;;;;;5048832;28;20096;-77
2023/07/28 05:25:58;;;;;;;2.70;2.50;;;;;;;;;;5064460;28;20474;-80
2023/07/28 05:28:25;;;;;;;3.78;2.40;;;;;;;;;;5043821;28;20044;-77
2023/07/28 05:31:03;;;;;;;4.47;2.58;;;;;;;;;;5049410;28;20052;-77
2023/07/28 05:33:31;;;;;;;2.90;2.70;;;;;;;;;;5048688;28;20060;-78
2023/07/28 05:36:05;;;;;;;2.95;2.75;;;;;;;;;;5047438;28;20052;-77
2023/07/28 05:38:34;;;;;;;3.33;2.38;;;;;;;;;;5046080;28;20479;-77
2023/07/28 05:41:03;;;;;;;3.03;2.75;;;;;;;;;;5065324;28;20139;-78
2023/07/28 05:43:31;;;;;;;2.60;2.50;;;;;;;;;;5048706;28;20052;-79
2023/07/28 05:46:00;;;;;;;2.38;2.22;;;;;;;;;;5048700;28;20040;-81
2023/07/28 05:48:31;;;;;;;3.65;2.15;;;;;;;;;;5044360;28;20037;-80
2023/07/28 05:50:59;;;;;;;3.90;2.40;;;;;;;;;;5047453;28;20128;-80
2023/07/28 05:53:27;;;;;;;2.30;2.10;;;;;;;;;;5060092;28;20052;-77
2023/07/28 05:56:00;;;;;;;2.47;2.28;;;;;;;;;;5048197;28;20546;-77
2023/07/28 05:58:30;;;;;;;3.40;2.47;;;;;;;;;;5047416;28;20054;-81
2023/07/28 06:00:58;;;;;;;3.00;2.80;;;;;;;;;;5048769;28;20549;-77
2023/07/28 06:03:45;;;;;;;2.97;2.53;;;;;;;;;;5061307;28;20091;-77
2023/07/28 06:06:19;;;;;;;3.13;2.63;;;;;;;;;;5049106;28;20159;-78
2023/07/28 06:08:47;;;;;;;2.90;2.70;;;;;;;;;;5049121;28;20098;-79
2023/07/28 06:11:15;;;;;;;5.78;2.47;;;;;;;;;;5045996;28;20186;-77
2023/07/28 06:13:42;;;;;;;2.58;2.30;;;;;;;;;;5048289;28;20049;-78
2023/07/28 06:16:10;;;;;;;2.55;2.40;;;;;;;;;;5044052;28;20052;-77
2023/07/28 06:18:38;;;;;;;2.80;2.60;;;;;;;;;;5046124;28;20102;-77
2023/07/28 06:21:15;;;;;;;2.75;2.55;;;;;;;;;;5045822;28;20123;-77
2023/07/28 06:23:43;;;;;;;3.20;3.00;;;;;;;;;;5063539;28;20052;-81
2023/07/28 06:26:10;;;;;;;2.55;2.35;;;;;;;;;;5047284;28;20110;-77
2023/07/28 06:28:40;;;;;;;2.65;2.40;;;;;;;;;;5043625;28;20585;-81
2023/07/28 06:31:09;;;;;;;3.05;2.30;;;;;;;;;;5042283;28;20581;-79
2023/07/28 06:33:37;;;;;;;2.38;2.28;;;;;;;;;;5045096;28;20058;-79
2023/07/28 06:36:05;;;;;;;2.42;2.28;;;;;;;;;;5045651;28;20150;-80
2023/07/28 06:38:33;;;;;;;2.67;2.47;;;;;;;;;;5046640;28;20146;-80
2023/07/28 06:41:01;;;;;;;2.28;2.17;;;;;;;;;;5046058;28;20087;-77
2023/07/28 06:43:29;;;;;;;2.70;2.50;;;;;;;;;;5063252;28;20047;-79
2023/07/28 06:46:01;;;;;;;2.90;2.60;;;;;;;;;;5067509;28;20055;-78
2023/07/28 06:48:29;;;;;;;2.10;1.90;;;;;;;;;;5045175;28;20429;-76
2023/07/28 06:50:57;;;;;;;2.75;2.50;;;;;;;;;;5045092;28;20050;-77
2023/07/28 06:53:25;;;;;;;4.10;2.35;;;;;;;;;;5064287;28;20040;-77
2023/07/28 06:55:56;;;;;;;2.60;2.40;;;;;;;;;;5042949;28;20052;-77
2023/07/28 06:58:24;;;;;;;4.22;2.40;;;;;;;;;;5058849;28;20513;-82
2023/07/28 07:00:51;;;;;;;2.85;2.55;;;;;;;;;;5046713;28;20136;-78
2023/07/28 07:03:19;;;;;;;2.45;2.25;;;;;;;;;;5064847;28;20051;-77
2023/07/28 07:05:47;;;;;;;2.28;2.08;;;;;;;;;;5046438;28;20154;-78
2023/07/28 07:08:15;;;;;;;2.35;2.22;;;;;;;;;;5064619;28;20045;-81
2023/07/28 07:10:52;;;;;;;4.73;2.37;;;;;;;;;;5046228;28;20141;-76
2023/07/28 07:13:20;;;;;;;2.20;2.10;;;;;;;;;;5047574;28;20329;-77
2023/07/28 07:15:51;;;;;;;2.40;2.30;;;;;;;;;;5047843;28;20631;-80
2023/07/28 07:18:19;;;;;;;3.88;2.50;;;;;;;;;;5063095;28;20406;-75
2023/07/28 07:20:46;;;;;;;2.30;2.13;;;;;;;;;;5064068;28;20052;-78
2023/07/28 07:23:14;;;;;;;2.33;2.13;;;;;;;;;;5047301;28;20403;-77
2023/07/28 07:25:42;;;;;;;2.72;2.22;;;;;;;;;;5044023;28;20106;-78
2023/07/28 07:28:09;;;;;;;2.40;2.20;;;;;;;;;;5061935;28;20564;-81
2023/07/28 07:30:37;;;;;;;2.33;2.22;;;;;;;;;;5059906;28;20076;-76
2023/07/28 07:33:05;;;;;;;2.45;2.25;;;;;;;;;;5064057;28;20058;-78
2023/07/28 07:35:36;;;;;;;2.58;2.40;;;;;;;;;;5065915;28;20062;-76
2023/07/28 07:38:08;;;;;;;2.65;2.45;;;;;;;;;;5068670;28;20127;-77
2023/07/28 07:40:37;;;;;;;3.40;2.10;;;;;;;;;;5066901;28;20049;-79
2023/07/28 07:43:04;;;;;;;2.45;2.30;;;;;;;;;;5065842;28;20131;-78
2023/07/28 07:45:33;;;;;;;2.10;2.00;;;;;;;;;;5067902;28;20553;-78
2023/07/28 07:48:00;;;;;;;3.47;2.10;;;;;;;;;;5049897;28;20056;-82
2023/07/28 07:50:28;;;;;;;3.33;2.20;;;;;;;;;;5063309;28;20052;-77
2023/07/28 07:52:55;;;;;;;2.50;2.30;;;;;;;;;;5065859;28;20048;-79
2023/07/28 07:55:31;;;;;;;2.88;2.60;;;;;;;;;;5046362;28;20041;-78
2023/07/28 07:57:59;;;;;;;3.08;2.55;;;;;;;;;;5067143;28;20517;-77
2023/07/28 08:00:26;;;;;;;2.85;2.33;;;;;;;;;;5044667;28;20425;-77
2023/07/28 08:02:54;;;;;;;2.45;2.25;;;;;;;;;;5067076;28;20055;-79
2023/07/28 08:05:22;;;;;;;3.65;2.40;;;;;;;;;;5047369;28;20127;-79
2023/07/28 08:07:50;;;;;;;2.38;2.28;;;;;;;;;;5066135;28;20419;-78
2023/07/28 08:10:18;;;;;;;2.80;2.60;;;;;;;;;;5066217;28;20461;-77
2023/07/28 08:12:47;;;;;;;3.13;2.33;;;;;;;;;;5049503;28;20040;-80
2023/07/28 08:15:14;;;;;;;2.33;2.13;;;;;;;;;;5065529;28;20045;-82
2023/07/28 08:17:42;;;;;;;2.17;1.98;;;;;;;;;;5066859;28;20040;-81
2023/07/28 08:20:10;;;;;;;4.07;2.08;;;;;;;;;;5065210;28;20055;-77
2023/07/28 08:22:37;;;;;;;3.30;2.10;;;;;;;;;;5063234;28;20036;-78
2023/07/28 08:25:05;;;;;;;4.80;2.38;;;;;;;;;;5047692;28;20044;-79
2023/07/28 08:27:33;;;;;;;1.98;1.88;;;;;;;;;;5048030;28;20048;-81
2023/07/28 08:30:01;;;;;;;2.40;2.20;;;;;;;;;;5066446;28;20495;-77
2023/07/28 08:32:29;;;;;;;1.90;1.80;;;;;;;;;;5050822;28;20068;-79
2023/07/28 08:34:56;;;;;;;2.72;2.13;;;;;;;;;;5048726;28;20045;-81
2023/07/28 08:37:24;;;;;;;2.20;2.00;;;;;;;;;;5058782;28;20053;-80
2023/07/28 08:39:52;;;;;;;2.00;1.90;;;;;;;;;;5066582;28;20045;-78
2023/07/28 08:42:21;;;;;;;2.47;2.28;;;;;;;;;;5067017;28;20572;-78
2023/07/28 08:44:52;;;;;;;2.33;2.20;;;;;;;;;;5063051;28;20040;-81
2023/07/28 08:47:20;;;;;;;5.15;1.80;;;;;;;;;;5065215;28;20044;-78
2023/07/28 08:49:47;;;;;;;1.95;1.80;;;;;;;;;;5066574;28;20052;-78
2023/07/28 08:52:17;;;;;;;3.75;1.73;;;;;;;;;;5064350;28;20167;-79
2023/07/28 08:54:46;;;;;;;2.15;1.98;;;;;;;;;;5066691;28;20204;-80
2023/07/28 08:57:14;;;;;;;1.70;1.60;;;;;;;;;;5066857;28;20051;-80
2023/07/28 08:59:47;;;;;;;1.98;1.88;;;;;;;;;;5063332;28;20040;-81
2023/07/28 09:02:16;;;;;;;1.90;1.80;;;;;;;;;;5031581;28;20571;-77
2023/07/28 09:04:44;;;;;;;2.10;1.63;;;;;;;;;;5064850;28;20393;-77
2023/07/28 09:07:11;;;;;;;2.10;2.00;;;;;;;;;;5065152;28;20432;-78
2023/07/28 09:09:40;;;;;;;1.70;1.60;;;;;;;;;;5047551;28;20123;-77
2023/07/28 09:12:08;;;;;;;4.05;1.85;;;;;;;;;;5060457;28;20044;-80
2023/07/28 09:14:36;;;;;;;3.10;2.90;;;;;;;;;;5046306;28;20428;-79
2023/07/28 09:17:08;;;;;;;2.20;2.00;;;;;;;;;;5065794;28;20078;-78
2023/07/28 09:19:50;;;;;;;3.15;2.92;;;;;;;;;;5066171;28;20243;-78
2023/07/28 09:22:18;;;;;;;;;;;;;;;;;;5049008;28;20047;-78
2023/07/28 09:24:46;;;;;;;4.32;3.97;;;;;;;;;;5066329;28;20325;-76
2023/07/28 09:27:21;;;;;;;5.05;3.70;;;;;;;;;;5047666;28;20043;-76
2023/07/28 09:29:50;;;;;;;3.55;1.98;;;;;;;;;;5063986;28;20403;-80
2023/07/28 09:32:28;;;;;;;4.35;1.80;;;;;;;;;;5065864;28;20052;-76
2023/07/28 09:35:07;;;;;;;3.85;2.10;;;;;;;;;;5045813;28;20079;-76
2023/07/28 09:37:35;;;;;;;1.85;1.75;;;;;;;;;;5064781;28;20318;-76
2023/07/28 09:40:04;;;;;;;1.88;1.77;;;;;;;;;;5046087;28;20135;-79
2023/07/28 09:42:32;;;;;;;3.17;1.70;;;;;;;;;;5063153;28;20556;-80
2023/07/28 09:45:00;;;;;;;3.08;1.77;;;;;;;;;;5065809;28;20213;-79
2023/07/28 09:47:28;;;;;;;2.03;1.70;;;;;;;;;;5047517;28;20156;-77
2023/07/28 09:49:58;;;;;;;2.78;1.73;;;;;;;;;;5065221;28;20056;-79
2023/07/28 09:52:28;;;;;;;1.92;1.83;;;;;;;;;;5065426;28;20048;-77
2023/07/28 09:54:59;;;;;;;2.85;1.80;;;;;;;;;;5048788;28;20494;-80
2023/07/28 09:57:27;;;;;;;2.20;2.00;;;;;;;;;;5064452;28;20051;-81
2023/07/28 09:59:56;;;;;;;1.90;1.80;;;;;;;;;;5047193;28;20040;-81
2023/07/28 10:02:24;;;;;;;1.92;1.83;;;;;;;;;;5062565;28;20155;-78
2023/07/28 10:04:53;;;;;;;1.40;1.38;;;;;;;;;;5062985;28;20109;-76
2023/07/28 10:07:20;;;;;;;3.10;1.70;;;;;;;;;;5065048;28;20395;-79
2023/07/28 10:09:48;;;;;;;1.70;1.65;;;;;;;;;;5063088;28;20045;-77
2023/07/28 10:12:19;;;;;;;3.28;1.90;;;;;;;;;;5033088;28;20515;-78
2023/07/28 10:14:47;;;;;;;1.55;1.45;;;;;;;;;;5063786;28;20071;-76
2023/07/28 10:17:17;;;;;;;2.17;2.08;;;;;;;;;;5061196;28;20052;-78
2023/07/28 10:19:45;;;;;;;2.28;1.77;;;;;;;;;;5061824;28;20048;-80
2023/07/28 10:22:12;;;;;;;4.10;2.33;;;;;;;;;;5061983;28;21810;-80
2023/07/28 10:24:56;;;;;;;1.92;1.83;;;;;;;;;;5063750;28;20048;-80
2023/07/28 10:27:36;;;;;;;2.00;1.90;;;;;;;;;;5054717;28;20111;-80
2023/07/28 10:30:13;;;;;;;2.03;1.90;;;;;;;;;;5043715;28;20036;-78
2023/07/28 10:32:45;;;;;;;4.93;2.05;;;;;;;;;;5062378;28;20040;-79
2023/07/28 10:35:27;;;;;;;1.92;1.83;;;;;;;;;;5060646;28;20051;-80
2023/07/28 10:37:57;;;;;;;5.28;2.10;;;;;;;;;;5040126;28;20094;-78
2023/07/28 10:40:35;;;;;;;2.10;2.00;;;;;;;;;;5063070;28;20124;-77
2023/07/28 10:43:07;;;;;;;1.92;1.83;;;;;;;;;;5046299;28;20143;-78
2023/07/28 10:45:35;;;;;;;;;;;;;;;;;;5101967;22;20502;-81
2023/07/28 10:49:20;;;;;;;1.92;1.83;;;;;;;;;;5020617;28;20307;-79
2023/07/28 10:52:17;;;;;;;2.00;1.88;;;;;;;;;;5030075;28;20116;-77
2023/07/28 10:54:46;;;;;;;3.00;2.33;;;;;;;;;;5026425;28;20057;-76
2023/07/28 10:57:14;;;;;;;2.10;2.00;;;;;;;;;;5001283;28;20045;-76
2023/07/28 10:59:41;;;;;;;1.95;1.85;;;;;;;;;;5019647;28;20085;-77
2023/07/28 11:02:15;;;;;;;1.90;1.80;;;;;;;;;;5018898;28;20510;-77
2023/07/28 11:04:47;;;;;;;2.10;2.00;;;;;;;;;;5004317;28;20053;-77
2023/07/28 11:07:15;;;;;;;2.00;1.80;;;;;;;;;;5004465;28;20045;-76
2023/07/28 11:09:43;;;;;;;1.80;1.70;;;;;;;;;;5010031;28;20593;-76
2023/07/28 11:12:11;;;;;;;2.00;1.90;;;;;;;;;;5024650;28;20049;-76
2023/07/28 11:14:39;;;;;;;2.05;1.95;;;;;;;;;;5016279;28;20108;-77
2023/07/28 11:17:07;;;;;;;2.00;1.90;;;;;;;;;;5012966;28;20045;-77
2023/07/28 11:19:34;;;;;;;1.83;1.73;;;;;;;;;;5018743;28;20073;-77
2023/07/28 11:22:02;;;;;;;1.88;1.77;;;;;;;;;;5027880;28;20057;-77
2023/07/28 11:24:29;;;;;;;3.45;2.03;;;;;;;;;;5014761;28;20491;-78
2023/07/28 11:26:59;;;;;;;2.00;1.77;;;;;;;;;;5011951;28;20042;-77
2023/07/28 11:29:27;;;;;;;2.08;1.98;;;;;;;;;;5026442;28;20050;-81
2023/07/28 11:31:54;;;;;;;2.15;1.70;;;;;;;;;;5029440;28;20415;-77
2023/07/28 11:34:22;;;;;;;1.70;1.60;;;;;;;;;;5030381;28;20079;-79
2023/07/28 11:36:50;;;;;;;2.00;1.90;;;;;;;;;;5027225;28;20053;-77
2023/07/28 11:39:21;;;;;;;2.30;2.20;;;;;;;;;;5028167;28;20057;-77
2023/07/28 11:41:53;;;;;;;2.10;2.00;;;;;;;;;;5029140;28;20048;-77
2023/07/28 11:44:21;;;;;;;3.22;1.98;;;;;;;;;;5029865;28;20128;-79
2023/07/28 11:46:53;;;;;;;1.75;1.67;;;;;;;;;;5021665;28;20049;-78
2023/07/28 11:49:24;;;;;;;3.00;2.10;;;;;;;;;;5022640;28;20060;-77
2023/07/28 11:51:53;;;;;;;1.83;1.73;;;;;;;;;;5026244;28;20118;-77
2023/07/28 11:54:22;;;;;;;2.17;2.08;;;;;;;;;;5026556;28;20045;-78
2023/07/28 11:56:51;;;;;;;2.10;2.00;;;;;;;;;;5025179;28;20049;-77
2023/07/28 11:59:19;;;;;;;1.90;1.80;;;;;;;;;;5027865;28;20134;-78
2023/07/28 12:01:56;;;;;;;2.10;2.00;;;;;;;;;;5027431;28;20049;-77
2023/07/28 12:04:28;;;;;;;2.60;2.40;;;;;;;;;;5027318;28;20038;-77
2023/07/28 12:06:58;;;;;;;;;;;;;;;;;;4997123;28;20721;-77
2023/07/28 12:09:26;;;;;;;2.20;2.10;;;;;;;;;;5024899;28;19929;-78
2023/07/28 12:11:54;;;;;;;2.67;2.42;;;;;;;;;;5025639;28;20054;-79
2023/07/28 12:14:34;;;;;;;2.00;1.90;;;;;;;;;;5014773;28;20642;-76
2023/07/28 12:17:15;;;;;;;2.70;2.50;;;;;;;;;;5034132;28;20140;-77
2023/07/28 12:19:58;;;;;;;2.00;1.90;;;;;;;;;;5034702;28;20039;-77
2023/07/28 12:22:28;;;;;;;3.38;1.92;;;;;;;;;;5028147;28;20041;-80
2023/07/28 12:24:56;;;;;;;2.67;1.97;;;;;;;;;;5010436;28;20035;-78
2023/07/28 12:27:26;;;;;;;2.90;2.10;;;;;;;;;;5008430;28;20284;-77
2023/07/28 12:29:59;;;;;;;2.17;2.08;;;;;;;;;;5035151;28;20044;-79
2023/07/28 12:32:31;;;;;;;2.75;1.92;;;;;;;;;;5009025;28;20077;-81
2023/07/28 12:35:04;;;;;;;2.40;1.75;;;;;;;;;;5007191;28;20072;-77
2023/07/28 12:37:35;;;;;;;3.85;2.10;;;;;;;;;;5023003;28;20056;-77
2023/07/28 12:40:06;;;;;;;4.88;2.65;;;;;;;;;;5016435;28;20057;-77
2023/07/28 12:42:33;;;;;;;4.43;2.65;;;;;;;;;;5011262;28;20597;-77
2023/07/28 12:45:06;;;;;;;4.88;2.50;;;;;;;;;;4951231;28;1361905;-78
2023/07/28 12:47:36;;;;;;;2.65;2.45;;;;;;;;;;4999847;28;20111;-76
2023/07/28 12:50:06;;;;;;;2.83;2.60;;;;;;;;;;5019377;28;20046;-76
2023/07/28 12:52:45;;;;;;;4.30;2.60;;;;;;;;;;5019976;28;20041;-78
2023/07/28 12:55:16;;;;;;;2.72;2.53;;;;;;;;;;5004341;28;20132;-78
2023/07/28 12:57:59;;;;;;;2.70;2.58;;;;;;;;;;5019635;28;20691;-76
2023/07/28 13:00:27;;;;;;;2.42;2.33;;;;;;;;;;5027268;28;20045;-76
2023/07/28 13:02:58;;;;;;;2.95;2.40;;;;;;;;;;5028197;28;20045;-78
2023/07/28 13:05:26;;;;;;;3.58;2.40;;;;;;;;;;5027729;28;20129;-79
2023/07/28 13:07:54;;;;;;;2.95;2.55;;;;;;;;;;5018136;28;20045;-77
2023/07/28 13:10:24;;;;;;;3.00;2.70;;;;;;;;;;5027389;28;20044;-79
2023/07/28 13:12:54;;;;;;;2.83;2.63;;;;;;;;;;5027725;28;20065;-79
2023/07/28 13:15:23;;;;;;;4.32;2.67;;;;;;;;;;5009445;28;20518;-77
2023/07/28 13:17:51;;;;;;;3.40;2.83;;;;;;;;;;5008768;28;20046;-80
2023/07/28 13:20:18;;;;;;;2.83;2.63;;;;;;;;;;5018803;28;20124;-77
2023/07/28 13:22:46;;;;;;;4.30;3.90;;;;;;;;;;5013096;28;20042;-80
2023/07/28 13:25:13;;;;;;;3.13;2.80;;;;;;;;;;5026867;28;20057;-80
2023/07/28 13:27:41;;;;;;;3.92;2.70;;;;;;;;;;5027269;28;20060;-77
2023/07/28 13:30:08;;;;;;;2.65;2.45;;;;;;;;;;5009409;28;20038;-78
2023/07/28 13:32:36;;;;;;;2.50;2.30;;;;;;;;;;4997712;28;20046;-81
2023/07/28 13:35:03;;;;;;;6.05;2.90;;;;;;;;;;5018225;28;20084;-77
2023/07/28 13:37:31;;;;;;;2.53;2.38;;;;;;;;;;5026209;28;20128;-77
2023/07/28 13:39:58;;;;;;;2.80;2.53;;;;;;;;;;5023773;28;20037;-78
2023/07/28 13:42:26;;;;;;;2.60;2.40;;;;;;;;;;5020351;28;20389;-81
2023/07/28 13:44:53;;;;;;;2.40;2.20;;;;;;;;;;5022452;28;20050;-77
2023/07/28 13:47:25;;;;;;;2.50;2.40;;;;;;;;;;5007122;28;20047;-77
2023/07/28 13:49:53;;;;;;;3.42;2.67;;;;;;;;;;5006391;28;20046;-78
2023/07/28 13:52:20;;;;;;;2.90;2.70;;;;;;;;;;5026370;28;20052;-77
2023/07/28 13:54:49;;;;;;;2.88;2.67;;;;;;;;;;5025563;28;20061;-79
2023/07/28 13:57:22;;;;;;;2.58;2.47;;;;;;;;;;5022560;28;20513;-78
2023/07/28 13:59:50;;;;;;;2.45;2.35;;;;;;;;;;5024888;28;20079;-78
2023/07/28 14:02:18;;;;;;;2.35;2.25;;;;;;;;;;5021795;28;20041;-78
2023/07/28 14:04:46;;;;;;;2.40;2.25;;;;;;;;;;5007764;28;20046;-79
2023/07/28 14:07:13;;;;;;;2.70;2.50;;;;;;;;;;5026149;28;20394;-78
2023/07/28 14:09:41;;;;;;;3.42;2.05;;;;;;;;;;5025409;28;20095;-80
2023/07/28 14:12:08;;;;;;;2.50;2.40;;;;;;;;;;5027095;28;20065;-78
2023/07/28 14:14:36;;;;;;;2.33;2.13;;;;;;;;;;5008046;28;20056;-81
2023/07/28 14:17:03;;;;;;;2.35;2.25;;;;;;;;;;5008564;28;20061;-77
2023/07/28 14:19:31;;;;;;;2.10;2.00;;;;;;;;;;5026108;28;20045;-78
2023/07/28 14:21:58;;;;;;;2.10;2.00;;;;;;;;;;5009487;28;20582;-78
2023/07/28 14:24:26;;;;;;;2.60;2.40;;;;;;;;;;5006180;28;20041;-80
2023/07/28 14:26:53;;;;;;;2.65;2.45;;;;;;;;;;5023299;28;20053;-78
2023/07/28 14:29:25;;;;;;;3.03;2.40;;;;;;;;;;5025852;28;20799;-80
2023/07/28 14:31:53;;;;;;;2.65;2.45;;;;;;;;;;5026311;28;20075;-81
2023/07/28 14:34:21;;;;;;;1.98;1.88;;;;;;;;;;5027339;28;20487;-78
2023/07/28 14:36:48;;;;;;;2.28;2.13;;;;;;;;;;5024448;28;20124;-77
2023/07/28 14:39:16;;;;;;;2.25;2.08;;;;;;;;;;5009439;28;20096;-79
2023/07/28 14:41:43;;;;;;;2.30;2.20;;;;;;;;;;5026728;28;20052;-78
2023/07/28 14:44:11;;;;;;;2.10;2.00;;;;;;;;;;5009578;28;20396;-80
2023/07/28 14:46:38;;;;;;;2.33;2.15;;;;;;;;;;5025331;28;20410;-78
2023/07/28 14:49:06;;;;;;;2.47;2.33;;;;;;;;;;5025937;28;20124;-79
2023/07/28 14:51:33;;;;;;;1.90;1.80;;;;;;;;;;5026755;28;20095;-79
2023/07/28 14:54:02;;;;;;;2.35;2.08;;;;;;;;;;5020143;28;20490;-80
2023/07/28 14:56:29;;;;;;;2.20;2.00;;;;;;;;;;5017905;28;20092;-79
2023/07/28 14:58:58;;;;;;;2.20;2.10;;;;;;;;;;5002855;28;20050;-80